Time;durP1;ratioP1;P1;durP2;ratioP2;P2;SDS_P1;SDS_P2;PMS_P1;PMS_P2;Temp;Humidity;BMP_temperature;BMP_pressure;BME280_temperature;BME280_humidity;BME280_pressure;Samples;Min_cycle;Max_cycle;Signal;HPM_P1;HPM_P2
2022/06/30 00:00:44;;;;;;;;;;;;;;;23.03;51.09;101782.47;2098337;28;1092;-51
2022/06/30 00:01:45;;;;;;;;;;;;;;;22.99;50.97;101781.69;2099159;28;1201;-51
2022/06/30 00:02:45;;;;;;;;;;;;;;;22.95;50.35;101786.31;2098937;28;1035;-52
2022/06/30 00:03:45;;;;;;;;;;;;;;;22.88;50.32;101790.13;2098872;28;1023;-52
2022/06/30 00:04:45;;;;;;;;;;;;;;;22.87;50.83;101790.16;2099096;28;1256;-54
2022/06/30 00:05:45;;;;;;;;;;;;;;;22.91;50.99;101791.84;2097776;28;897;-53
2022/06/30 00:06:46;;;;;;;;;;;;;;;22.96;49.97;101792.59;2098944;28;1309;-53
2022/06/30 00:07:46;;;;;;;;;;;;;;;23.00;49.69;101794.28;2098158;28;1237;-54
2022/06/30 00:08:46;;;;;;;;;;;;;;;22.99;48.79;101799.72;2098763;28;1943;-54
2022/06/30 00:09:46;;;;;;;;;;;;;;;22.98;48.87;101800.66;2098977;28;1321;-53
2022/06/30 00:10:46;;;;;;;;;;;;;;;22.94;48.23;101803.47;2098066;28;1110;-50
2022/06/30 00:11:47;;;;;;;;;;;;;;;22.89;48.76;101797.31;2099009;28;1257;-51
2022/06/30 00:12:47;;;;;;;;;;;;;;;22.84;48.65;101801.03;2098973;28;1359;-50
2022/06/30 00:13:47;;;;;;;;;;;;;;;22.79;48.71;101807.47;2098915;28;1206;-51
2022/06/30 00:14:48;;;;;;;;;;;;;;;22.75;47.83;101794.97;2098922;28;973;-51
2022/06/30 00:15:48;;;;;;;;;;;;;;;22.71;48.75;101795.97;2098128;28;1040;-53
2022/06/30 00:16:48;;;;;;;;;;;;;;;22.67;48.70;101793.41;2099160;28;1115;-52
2022/06/30 00:17:48;;;;;;;;;;;;;;;22.62;49.09;101790.84;2098959;28;1206;-52
2022/06/30 00:18:49;;;;;;;;;;;;;;;22.58;48.89;101787.34;2099154;28;1261;-52
2022/06/30 00:19:49;;;;;;;;;;;;;;;22.59;49.49;101791.81;2098335;28;1123;-52
2022/06/30 00:20:49;;;;;;;;;;;;;;;22.65;49.84;101788.94;2098188;28;1166;-52
2022/06/30 00:21:49;;;;;;;;;;;;;;;22.73;50.04;101790.53;2098983;28;1220;-53
2022/06/30 00:22:49;;;;;;;;;;;;;;;22.78;50.90;101788.59;2099093;28;1150;-54
2022/06/30 00:23:49;;;;;;;;;;;;;;;22.89;48.85;101783.78;2099091;28;1169;-54
2022/06/30 00:24:50;;;;;;;;;;;;;;;22.95;49.94;101778.22;2098838;28;1158;-54
2022/06/30 00:25:50;;;;;;;;;;;;;;;23.02;49.47;101778.00;2098241;28;1221;-55
2022/06/30 00:26:50;;;;;;;;;;;;;;;23.06;49.04;101777.00;2099060;28;1119;-53
2022/06/30 00:27:50;;;;;;;;;;;;;;;23.05;48.60;101772.53;2098771;28;1336;-52
2022/06/30 00:28:51;;;;;;;;;;;;;;;23.01;48.75;101778.94;2098968;28;1929;-51
2022/06/30 00:29:51;;;;;;;;;;;;;;;22.97;48.64;101774.56;2098561;28;1281;-51
2022/06/30 00:30:51;;;;;;;;;;;;;;;22.91;48.23;101779.22;2098220;28;1255;-50
2022/06/30 00:31:51;;;;;;;;;;;;;;;22.85;48.36;101770.41;2098953;28;1254;-51
2022/06/30 00:32:52;;;;;;;;;;;;;;;22.80;48.07;101778.66;2098824;28;1202;-51
2022/06/30 00:33:52;;;;;;;;;;;;;;;22.76;49.08;101771.56;2098897;28;1091;-50
2022/06/30 00:34:52;;;;;;;;;;;;;;;22.73;49.60;101774.34;2098491;28;1043;-49
2022/06/30 00:35:52;;;;;;;;;;;;;;;22.70;49.18;101777.13;2097999;28;1125;-50
2022/06/30 00:36:53;;;;;;;;;;;;;;;22.65;49.65;101777.28;2098834;28;1143;-50
2022/06/30 00:37:53;;;;;;;;;;;;;;;22.62;49.64;101775.53;2098692;28;1030;-52
2022/06/30 00:38:54;;;;;;;;;;;;;;;22.68;49.81;101774.44;2098817;28;1213;-54
2022/06/30 00:39:54;;;;;;;;;;;;;;;22.77;49.30;101778.72;2098273;28;1361;-54
2022/06/30 00:40:54;;;;;;;;;;;;;;;22.82;49.18;101770.47;2098309;28;1260;-53
2022/06/30 00:41:55;;;;;;;;;;;;;;;22.87;48.94;101782.06;2098697;28;1221;-54
2022/06/30 00:42:55;;;;;;;;;;;;;;;22.87;48.93;101784.75;2098787;28;1154;-53
2022/06/30 00:43:55;;;;;;;;;;;;;;;22.85;49.73;101783.91;2098755;28;1142;-52
2022/06/30 00:44:55;;;;;;;;;;;;;;;22.81;49.69;101780.41;2098238;28;1211;-50
2022/06/30 00:45:56;;;;;;;;;;;;;;;22.79;49.31;101776.88;2098254;28;1095;-52
2022/06/30 00:46:56;;;;;;;;;;;;;;;22.76;49.57;101785.06;2098807;28;1226;-51
2022/06/30 00:47:57;;;;;;;;;;;;;;;22.74;49.80;101776.97;2098717;28;1890;-52
2022/06/30 00:48:57;;;;;;;;;;;;;;;22.70;50.32;101782.53;2098780;28;1151;-51
2022/06/30 00:49:57;;;;;;;;;;;;;;;22.69;51.12;101781.63;2098150;28;1142;-52
2022/06/30 00:50:58;;;;;;;;;;;;;;;22.72;50.61;101786.94;2098468;28;983;-52
2022/06/30 00:52:01;;;;;;;;;;;;;;;22.76;51.17;101790.47;2098772;28;1146;-51
2022/06/30 00:53:02;;;;;;;;;;;;;;;22.78;52.22;101788.59;2097988;28;1032;-54
2022/06/30 00:54:04;;;;;;;;;;;;;;;22.89;52.40;101793.69;2098807;28;1115;-54
2022/06/30 00:55:05;;;;;;;;;;;;;;;22.94;51.26;101787.25;2097759;28;1169;-54
2022/06/30 00:56:06;;;;;;;;;;;;;;;22.98;51.64;101784.44;2098695;28;1134;-53
2022/06/30 00:57:07;;;;;;;;;;;;;;;22.99;51.84;101791.59;2098783;28;1249;-53
2022/06/30 00:58:08;;;;;;;;;;;;;;;22.96;51.32;101789.91;2098800;28;1174;-51
2022/06/30 00:59:09;;;;;;;;;;;;;;;22.92;52.37;101788.22;2098839;28;1083;-51
2022/06/30 01:00:09;;;;;;;;;;;;;;;22.88;53.04;101792.81;2097875;28;1099;-52
2022/06/30 01:01:11;;;;;;;;;;;;;;;22.84;52.59;101790.25;2098750;28;1099;-51
2022/06/30 01:02:12;;;;;;;;;;;;;;;22.81;53.06;101785.81;2098627;28;1110;-52
2022/06/30 01:03:12;;;;;;;;;;;;;;;22.77;53.07;101779.59;2098754;28;1138;-52
2022/06/30 01:04:13;;;;;;;;;;;;;;;22.76;53.96;101777.81;2098759;28;1197;-53
2022/06/30 01:05:13;;;;;;;;;;;;;;;22.78;54.23;101783.22;2097703;28;1304;-54
2022/06/30 01:06:14;;;;;;;;;;;;;;;22.82;54.85;101776.78;2098682;28;1074;-54
2022/06/30 01:07:15;;;;;;;;;;;;;;;22.85;54.62;101782.09;2098630;28;1260;-53
2022/06/30 01:28:05;;;;;;;;;;;;;;;22.77;50.29;101787.69;2105976;27;1336;-52
2022/06/30 01:29:05;;;;;;;;;;;;;;;22.75;50.59;101784.16;2105949;28;1282;-52
2022/06/30 01:30:06;;;;;;;;;;;;;;;22.70;48.99;101774.44;2104910;28;1268;-51
2022/06/30 01:31:06;;;;;;;;;;;;;;;22.64;49.32;101770.97;2105784;28;1273;-52
2022/06/30 01:32:06;;;;;;;;;;;;;;;22.58;48.68;101779.22;2105974;28;1178;-52
2022/06/30 01:33:07;;;;;;;;;;;;;;;22.54;49.19;101776.66;2105915;28;1306;-53
2022/06/30 01:34:07;;;;;;;;;;;;;;;22.50;48.93;101778.53;2105926;28;1249;-53
2022/06/30 01:35:07;;;;;;;;;;;;;;;22.46;48.88;101771.44;2104932;28;1170;-51
2022/06/30 01:36:07;;;;;;;;;;;;;;;22.43;48.60;101768.81;2105964;28;1360;-53
2022/06/30 01:37:08;;;;;;;;;;;;;;;22.40;50.52;101769.78;2105753;28;1289;-53
2022/06/30 01:38:08;;;;;;;;;;;;;;;22.41;49.40;101770.66;2105661;28;1418;-54
2022/06/30 01:39:08;;;;;;;;;;;;;;;22.47;49.10;101765.13;2105691;28;1576;-55
2022/06/30 01:40:08;;;;;;;;;;;;;;;22.56;48.77;101769.41;2104663;28;1505;-55
2022/06/30 01:41:09;;;;;;;;;;;;;;;22.58;48.86;101773.81;2104434;28;1479;-56
2022/06/30 01:42:09;;;;;;;;;;;;;;;22.62;48.45;101772.81;2105662;28;1178;-56
2022/06/30 01:43:13;;;;;;;;;;;;;;;22.62;49.43;101769.25;2105801;28;1130;-56
2022/06/30 01:44:13;;;;;;;;;;;;;;;22.61;49.70;101768.34;2103869;28;1003;-54
2022/06/30 01:45:14;;;;;;;;;;;;;;;22.58;49.09;101771.13;2102529;28;1123;-52
2022/06/30 01:46:18;;;;;;;;;;;;;;;22.56;49.20;101764.88;2103585;28;1031;-54
2022/06/30 01:47:18;;;;;;;;;;;;;;;22.52;49.55;101749.69;2103878;28;1930;-53
2022/06/30 01:48:19;;;;;;;;;;;;;;;22.48;49.46;101753.41;2105754;28;1066;-55
2022/06/30 01:49:19;;;;;;;;;;;;;;;22.48;50.13;101750.69;2105795;28;1063;-55
2022/06/30 01:50:21;;;;;;;;;;;;;;;22.49;50.52;101749.78;2104724;28;1039;-54
2022/06/30 01:51:21;;;;;;;;;;;;;;;22.48;50.81;101759.69;2105717;28;984;-55
2022/06/30 01:52:21;;;;;;;;;;;;;;;22.54;51.13;101757.78;2105815;28;1054;-55
2022/06/30 01:53:21;;;;;;;;;;;;;;;22.60;50.69;101766.56;2105671;28;1110;-57
2022/06/30 01:54:22;;;;;;;;;;;;;;;22.69;50.59;101751.91;2105588;28;972;-56
2022/06/30 01:55:23;;;;;;;;;;;;;;;22.74;52.10;101758.06;2103890;28;1378;-56
2022/06/30 01:56:23;;;;;;;;;;;;;;;22.76;51.09;101742.72;2104982;28;1194;-56
2022/06/30 01:57:23;;;;;;;;;;;;;;;22.75;50.90;101753.56;2105047;28;1125;-56
2022/06/30 01:58:23;;;;;;;;;;;;;;;22.73;50.53;101750.91;2105635;28;1047;-56
2022/06/30 01:59:23;;;;;;;;;;;;;;;22.70;50.60;101750.13;2105664;28;1003;-54
2022/06/30 02:00:25;;;;;;;;;;;;;;;22.65;50.65;101756.53;2104321;28;1161;-53
2022/06/30 02:01:25;;;;;;;;;;;;;;;22.61;50.79;101752.16;2105696;28;1050;-54
2022/06/30 02:02:25;;;;;;;;;;;;;;;22.56;50.82;101748.69;2105674;28;1000;-54
2022/06/30 02:03:25;;;;;;;;;;;;;;;22.51;51.89;101745.22;2105701;28;1011;-54
2022/06/30 02:05:44;;;;;;;;;;;;;;;22.54;50.29;101755.06;2104620;28;1125;-56
2022/06/30 02:06:44;;;;;;;;;;;;;;;22.60;50.44;101760.31;2105812;28;1082;-56
2022/06/30 02:07:45;;;;;;;;;;;;;;;22.62;49.12;101759.31;2105546;28;1901;-56
2022/06/30 02:08:45;;;;;;;;;;;;;;;22.63;49.88;101761.09;2105636;28;1281;-56
2022/06/30 02:09:46;;;;;;;;;;;;;;;22.62;49.18;101758.44;2105719;28;1130;-55
2022/06/30 02:10:46;;;;;;;;;;;;;;;22.57;49.71;101755.84;2104571;28;1094;-54
2022/06/30 02:11:46;;;;;;;;;;;;;;;22.55;49.40;101756.84;2105699;28;1149;-52
2022/06/30 02:12:46;;;;;;;;;;;;;;;22.49;49.39;101764.19;2105773;28;1216;-53
2022/06/30 02:13:46;;;;;;;;;;;;;;;22.47;48.22;101765.13;2105505;28;1086;-55
2022/06/30 02:14:47;;;;;;;;;;;;;;;22.45;48.72;101767.88;2105528;28;1091;-54
2022/06/30 02:15:47;;;;;;;;;;;;;;;22.43;49.36;101768.81;2104551;28;1258;-54
2022/06/30 02:16:47;;;;;;;;;;;;;;;22.39;49.50;101773.41;2105654;28;1145;-53
2022/06/30 02:17:49;;;;;;;;;;;;;;;22.35;49.41;101769.91;2105548;28;1252;-53
2022/06/30 02:18:49;;;;;;;;;;;;;;;22.33;48.72;101774.47;2105665;28;1236;-55
2022/06/30 02:19:50;;;;;;;;;;;;;;;22.34;49.37;101770.84;2105270;28;1200;-55
2022/06/30 02:20:50;;;;;;;;;;;;;;;22.39;48.70;101772.50;2104842;28;1118;-55
2022/06/30 02:21:50;;;;;;;;;;;;;;;22.42;49.76;101767.94;2104754;28;1347;-55
2022/06/30 02:22:55;;;;;;;;;;;;;;;22.46;50.15;101769.66;2104960;28;1114;-56
2022/06/30 02:23:55;;;;;;;;;;;;;;;22.54;50.18;101769.44;2103007;28;1027;-56
2022/06/30 02:24:55;;;;;;;;;;;;;;;22.64;50.13;101778.19;2102492;28;1015;-56
2022/06/30 02:25:55;;;;;;;;;;;;;;;22.68;49.99;101773.59;2105083;28;1032;-56
2022/06/30 02:26:55;;;;;;;;;;;;;;;22.70;49.95;101769.03;2105502;28;1078;-56
2022/06/30 02:27:56;;;;;;;;;;;;;;;22.69;50.08;101769.94;2112444;28;1897;-55
2022/06/30 02:28:56;;;;;;;;;;;;;;;22.64;49.29;101773.66;2113772;28;1251;-53
2022/06/30 02:29:56;;;;;;;;;;;;;;;22.60;50.39;101776.50;2113232;28;1144;-54
2022/06/30 02:30:56;;;;;;;;;;;;;;;22.56;49.18;101775.69;2113338;28;978;-54
2022/06/30 02:31:56;;;;;;;;;;;;;;;22.53;49.81;101774.91;2111177;28;983;-54
2022/06/30 02:32:57;;;;;;;;;;;;;;;22.48;50.37;101775.00;2113878;28;1078;-53
2022/06/30 02:33:57;;;;;;;;;;;;;;;22.43;49.82;101772.41;2113727;28;1191;-51
2022/06/30 02:34:57;;;;;;;;;;;;;;;22.42;49.52;101775.13;2113189;28;1203;-53
2022/06/30 02:35:57;;;;;;;;;;;;;;;22.40;49.24;101775.19;2113359;28;1004;-55
2022/06/30 02:36:57;;;;;;;;;;;;;;;22.39;50.22;101775.19;2113882;28;1322;-55
2022/06/30 02:37:58;;;;;;;;;;;;;;;22.38;49.80;101781.53;2113753;28;1208;-55
2022/06/30 02:38:58;;;;;;;;;;;;;;;22.43;50.43;101774.19;2110811;28;1074;-57
2022/06/30 02:39:58;;;;;;;;;;;;;;;22.48;50.10;101775.00;2106876;28;1149;-57
2022/06/30 02:40:58;;;;;;;;;;;;;;;22.52;50.18;101771.28;2107456;28;1006;-55
2022/06/30 02:41:58;;;;;;;;;;;;;;;22.55;49.88;101771.22;2108072;28;1097;-56
2022/06/30 02:42:58;;;;;;;;;;;;;;;22.57;49.90;101776.59;2108180;28;1200;-56
2022/06/30 02:43:58;;;;;;;;;;;;;;;22.58;50.03;101775.66;2108104;28;1074;-54
2022/06/30 02:44:59;;;;;;;;;;;;;;;22.55;50.05;101782.00;2107224;28;1026;-54
2022/06/30 02:45:59;;;;;;;;;;;;;;;22.52;50.27;101773.13;2107877;28;1069;-53
2022/06/30 02:46:59;;;;;;;;;;;;;;;22.50;50.35;101774.03;2108039;28;1080;-53
2022/06/30 02:47:59;;;;;;;;;;;;;;;22.48;50.73;101775.00;2108018;28;1950;-54
2022/06/30 02:49:00;;;;;;;;;;;;;;;22.45;50.56;101769.69;2108085;28;1192;-54
2022/06/30 02:50:03;;;;;;;;;;;;;;;22.47;50.95;101775.94;2107178;28;1145;-53
2022/06/30 02:51:03;;;;;;;;;;;;;;;22.48;51.42;101772.28;2108044;28;1008;-56
2022/06/30 02:52:03;;;;;;;;;;;;;;;22.53;51.71;101769.50;2108071;28;1205;-54
2022/06/30 02:53:04;;;;;;;;;;;;;;;22.55;52.14;101779.31;2107465;28;1225;-58
2022/06/30 02:54:04;;;;;;;;;;;;;;;22.63;52.18;101773.72;2107927;28;1216;-57
2022/06/30 02:55:05;;;;;;;;;;;;;;;22.67;51.90;101777.22;2106918;28;1244;-56
2022/06/30 02:56:06;;;;;;;;;;;;;;;22.70;51.63;101771.72;2108060;28;1034;-56
2022/06/30 02:57:06;;;;;;;;;;;;;;;22.70;51.50;101777.13;2108038;28;1180;-56
2022/06/30 02:58:06;;;;;;;;;;;;;;;22.68;51.69;101776.28;2107932;28;1070;-53
2022/06/30 02:59:06;;;;;;;;;;;;;;;22.65;52.27;101775.44;2107254;28;1122;-54
2022/06/30 03:00:08;;;;;;;;;;;;;;;22.60;52.41;101771.09;2106249;28;1067;-53
2022/06/30 03:01:08;;;;;;;;;;;;;;;22.57;53.30;101771.19;2108042;28;1026;-56
2022/06/30 03:02:08;;;;;;;;;;;;;;;22.53;53.98;101766.78;2108187;28;1184;-54
2022/06/30 03:03:08;;;;;;;;;;;;;;;22.50;54.32;101765.94;2108114;28;1228;-54
2022/06/30 03:04:08;;;;;;;;;;;;;;;22.53;54.35;101767.66;2107885;28;1177;-55
2022/06/30 03:05:09;;;;;;;;;;;;;;;22.55;54.43;101768.50;2106961;28;1260;-57
2022/06/30 03:06:09;;;;;;;;;;;;;;;22.58;54.70;101771.13;2108080;28;1303;-56
2022/06/30 03:07:09;;;;;;;;;;;;;;;22.60;54.90;101766.56;2107677;28;1886;-56
2022/06/30 03:08:09;;;;;;;;;;;;;;;22.62;55.60;101766.56;2107673;28;995;-56
2022/06/30 03:09:09;;;;;;;;;;;;;;;22.59;56.06;101762.09;2108023;28;1156;-55
2022/06/30 03:10:10;;;;;;;;;;;;;;;22.58;55.44;101762.16;2107034;28;1248;-55
2022/06/30 03:11:16;;;;;;;;;;;;;;;22.56;55.20;101750.50;2108113;28;1224;-52
2022/06/30 03:12:16;;;;;;;;;;;;;;;22.52;55.64;101751.53;2108175;28;1029;-54
2022/06/30 03:13:16;;;;;;;;;;;;;;;22.48;54.65;101746.22;2107946;28;1129;-53
2022/06/30 03:14:16;;;;;;;;;;;;;;;22.46;54.91;101749.84;2108024;28;1180;-53
2022/06/30 03:15:17;;;;;;;;;;;;;;;22.41;54.68;101749.97;2106908;28;1180;-54
2022/06/30 03:16:17;;;;;;;;;;;;;;;22.36;54.45;101742.00;2107945;28;1066;-53
2022/06/30 03:17:17;;;;;;;;;;;;;;;22.39;54.85;101745.50;2107872;28;1125;-54
2022/06/30 03:18:17;;;;;;;;;;;;;;;22.37;53.25;101748.28;2107915;28;1097;-54
2022/06/30 03:19:19;;;;;;;;;;;;;;;22.34;53.49;101749.25;2107879;28;1035;-54
2022/06/30 03:20:19;;;;;;;;;;;;;;;22.34;53.91;101753.75;2106905;28;1192;-53
2022/06/30 03:21:20;;;;;;;;;;;;;;;22.35;52.23;101747.41;2107772;28;1180;-54
2022/06/30 03:22:20;;;;;;;;;;;;;;;22.35;52.51;101748.31;2107818;28;1065;-55
2022/06/30 03:23:20;;;;;;;;;;;;;;;22.40;52.09;101748.19;2107773;28;1173;-57
2022/06/30 03:24:20;;;;;;;;;;;;;;;22.47;50.55;101751.63;2107806;28;1169;-56
2022/06/30 03:25:20;;;;;;;;;;;;;;;22.54;50.54;101755.06;2106737;28;1089;-56
2022/06/30 03:26:21;;;;;;;;;;;;;;;22.54;51.16;101755.06;2107758;28;1187;-56
2022/06/30 03:27:21;;;;;;;;;;;;;;;22.53;50.58;101758.69;2107646;28;1918;-56
2022/06/30 03:28:21;;;;;;;;;;;;;;;22.50;49.99;101760.56;2107801;28;1125;-55
2022/06/30 03:29:21;;;;;;;;;;;;;;;22.46;50.21;101757.94;2107858;28;1021;-53
2022/06/30 03:30:21;;;;;;;;;;;;;;;22.41;50.01;101762.56;2106616;28;1104;-53
2022/06/30 03:31:22;;;;;;;;;;;;;;;22.39;49.74;101759.00;2107790;28;1038;-54
2022/06/30 03:32:22;;;;;;;;;;;;;;;22.35;49.46;101755.53;2107676;28;1159;-53
2022/06/30 03:33:22;;;;;;;;;;;;;;;22.31;49.03;101760.13;2107659;28;1002;-54
2022/06/30 03:34:22;;;;;;;;;;;;;;;22.29;49.44;101758.38;2107753;28;1053;-53
2022/06/30 03:35:22;;;;;;;;;;;;;;;22.25;49.73;101752.19;2106580;28;1062;-52
2022/06/30 03:36:23;;;;;;;;;;;;;;;22.23;49.56;101755.84;2107657;28;1057;-53
2022/06/30 03:37:23;;;;;;;;;;;;;;;22.18;48.99;101747.88;2107675;28;1109;-55
2022/06/30 03:38:23;;;;;;;;;;;;;;;22.20;49.39;101751.41;2107656;28;1030;-56
2022/06/30 03:39:23;;;;;;;;;;;;;;;22.27;49.58;101760.22;2107768;28;1069;-57
2022/06/30 03:40:23;;;;;;;;;;;;;;;22.29;49.54;101753.88;2106603;28;1105;-56
2022/06/30 03:41:23;;;;;;;;;;;;;;;22.33;50.05;101752.88;2107733;28;1150;-57
2022/06/30 03:42:24;;;;;;;;;;;;;;;22.35;49.52;101753.72;2107677;28;1145;-56
2022/06/30 03:43:24;;;;;;;;;;;;;;;22.35;49.61;101748.31;2107224;28;1105;-55
2022/06/30 03:44:24;;;;;;;;;;;;;;;22.34;49.31;101749.25;2107596;28;1259;-53
2022/06/30 03:45:24;;;;;;;;;;;;;;;22.32;49.73;101753.81;2106572;28;1236;-53
2022/06/30 03:46:25;;;;;;;;;;;;;;;22.29;50.08;101751.19;2107568;28;1256;-53
2022/06/30 03:47:25;;;;;;;;;;;;;;;22.26;50.18;101758.47;2107447;28;1966;-55
2022/06/30 03:48:25;;;;;;;;;;;;;;;22.25;50.26;101759.38;2107524;28;1219;-54
2022/06/30 03:49:25;;;;;;;;;;;;;;;22.24;50.31;101758.50;2107479;28;1207;-56
2022/06/30 03:50:26;;;;;;;;;;;;;;;22.27;50.94;101757.53;2106171;28;1152;-55
2022/06/30 03:51:26;;;;;;;;;;;;;;;22.29;52.90;101756.59;2106967;28;1314;-55
2022/06/30 03:52:27;;;;;;;;;;;;;;;22.32;51.51;101753.81;2107665;28;1157;-54
2022/06/30 03:53:27;;;;;;;;;;;;;;;22.39;51.05;101756.31;2107501;28;1224;-57
2022/06/30 03:54:27;;;;;;;;;;;;;;;22.45;50.81;101756.19;2107413;28;1145;-57
2022/06/30 03:55:28;;;;;;;;;;;;;;;22.48;51.31;101758.81;2106416;28;1208;-56
2022/06/30 03:56:28;;;;;;;;;;;;;;;22.50;50.65;101763.25;2107390;28;1212;-56
2022/06/30 03:57:28;;;;;;;;;;;;;;;22.50;51.14;101765.03;2107621;28;1319;-56
2022/06/30 03:58:28;;;;;;;;;;;;;;;22.48;50.89;101761.50;2107498;28;1240;-56
2022/06/30 03:59:29;;;;;;;;;;;;;;;22.44;51.41;101765.22;2107413;28;1342;-55
2022/06/30 04:00:29;;;;;;;;;;;;;;;22.40;51.81;101760.78;2106351;28;1062;-55
2022/06/30 04:01:29;;;;;;;;;;;;;;;22.34;51.27;101756.44;2107564;28;1050;-55
2022/06/30 04:02:29;;;;;;;;;;;;;;;22.64;50.50;101762.00;2107481;28;1125;-55
2022/06/30 04:03:30;;;;;;;;;;;;;;;23.60;49.63;101763.69;2107484;28;1145;-54
2022/06/30 04:04:30;;;;;;;;;;;;;;;24.13;47.16;101757.47;2107499;28;1121;-53
2022/06/30 04:05:30;;;;;;;;;;;;;;;24.42;47.46;101753.75;2106501;28;1329;-53
2022/06/30 04:06:30;;;;;;;;;;;;;;;24.64;48.90;101752.09;2107434;28;1161;-54
2022/06/30 04:07:30;;;;;;;;;;;;;;;24.87;45.36;101759.41;2107375;28;1894;-55
2022/06/30 04:08:31;;;;;;;;;;;;;;;24.93;45.56;101753.75;2107356;28;1173;-56
2022/06/30 04:09:31;;;;;;;;;;;;;;;25.09;45.00;101755.91;2107341;28;1244;-56
2022/06/30 04:10:31;;;;;;;;;;;;;;;25.13;45.07;101750.28;2106409;28;1288;-56
2022/06/30 04:11:31;;;;;;;;;;;;;;;25.22;45.20;101751.78;2107435;28;1189;-56
2022/06/30 04:12:31;;;;;;;;;;;;;;;25.23;43.10;101745.41;2107440;28;1221;-56
2022/06/30 04:13:31;;;;;;;;;;;;;;;25.29;43.87;101745.16;2107359;28;1307;-54
2022/06/30 04:14:32;;;;;;;;;;;;;;;25.37;42.89;101743.94;2107455;28;1338;-53
2022/06/30 04:15:32;;;;;;;;;;;;;;;25.36;42.65;101742.19;2104940;28;1066;-52
2022/06/30 04:16:32;;;;;;;;;;;;;;;25.43;44.22;101746.44;2105977;28;1105;-54
2022/06/30 04:17:33;;;;;;;;;;;;;;;25.48;43.05;101743.59;2107304;28;1158;-54
2022/06/30 04:18:33;;;;;;;;;;;;;;;25.52;42.74;101737.94;2107226;28;1136;-53
2022/06/30 04:19:34;;;;;;;;;;;;;;;25.61;42.55;101739.44;2107480;28;1105;-54
2022/06/30 04:20:34;;;;;;;;;;;;;;;25.64;42.89;101741.13;2106346;28;1118;-55
2022/06/30 04:21:34;;;;;;;;;;;;;;;25.66;44.50;101731.09;2107328;28;1120;-55
2022/06/30 04:22:34;;;;;;;;;;;;;;;25.69;42.58;101737.25;2107462;28;1121;-55
2022/06/30 04:23:35;;;;;;;;;;;;;;;25.75;43.21;101736.13;2107256;28;1109;-57
2022/06/30 04:24:35;;;;;;;;;;;;;;;25.69;45.05;101731.81;2107336;28;1081;-56
2022/06/30 04:25:35;;;;;;;;;;;;;;;25.67;44.61;101727.44;2106220;28;1184;-56
2022/06/30 04:26:35;;;;;;;;;;;;;;;25.68;43.97;101734.63;2107443;28;1236;-56
2022/06/30 04:27:36;;;;;;;;;;;;;;;25.66;43.62;101734.66;2107028;28;1907;-56
2022/06/30 04:28:38;;;;;;;;;;;;;;;25.80;43.71;101727.78;2107292;28;1025;-54
2022/06/30 04:29:38;;;;;;;;;;;;;;;25.90;44.29;101730.06;2107397;28;1081;-51
2022/06/30 04:33:16;;;;;;;;;;;;;;;26.16;43.04;101736.25;2107286;28;959;-53
2022/06/30 04:34:16;;;;;;;;;;;;;;;26.19;43.90;101736.09;2107169;28;1138;-52
2022/06/30 04:35:16;;;;;;;;;;;;;;;26.37;42.47;101728.09;2106269;28;1125;-54
2022/06/30 04:36:16;;;;;;;;;;;;;;;26.55;42.02;101730.94;2107206;28;1078;-53
2022/06/30 04:37:16;;;;;;;;;;;;;;;26.61;42.01;101734.28;2107212;28;1141;-54
2022/06/30 04:38:17;;;;;;;;;;;;;;;26.62;42.38;101735.13;2107277;28;1141;-56
2022/06/30 04:39:17;;;;;;;;;;;;;;;26.63;43.35;101726.03;2107204;28;1089;-56
2022/06/30 04:41:36;;;;;;;;;;;;;;;26.46;42.89;101732.25;2107401;28;867;-55
2022/06/30 04:42:36;;;;;;;;;;;;;;;26.46;43.45;101735.84;2104667;28;1059;-56
2022/06/30 04:43:36;;;;;;;;;;;;;;;26.60;42.95;101735.22;2107085;28;1318;-55
2022/06/30 04:44:37;;;;;;;;;;;;;;;26.58;42.29;101731.69;2107227;28;987;-54
2022/06/30 04:45:37;;;;;;;;;;;;;;;26.73;42.55;101735.53;2104453;28;937;-54
2022/06/30 04:46:37;;;;;;;;;;;;;;;26.83;42.33;101730.59;2107074;28;1145;-53
2022/06/30 04:47:37;;;;;;;;;;;;;;;26.96;42.67;101720.03;2107173;28;1906;-54
2022/06/30 04:48:38;;;;;;;;;;;;;;;27.02;42.46;101733.34;2107103;28;1236;-53
2022/06/30 04:49:38;;;;;;;;;;;;;;;26.88;42.72;101724.94;2107111;28;1129;-54
2022/06/30 04:50:38;;;;;;;;;;;;;;;26.75;43.08;101736.34;2106087;28;1144;-55
2022/06/30 04:51:38;;;;;;;;;;;;;;;26.78;43.93;101733.50;2107103;28;1178;-55
2022/06/30 04:52:39;;;;;;;;;;;;;;;26.70;44.75;101732.09;2107095;28;1205;-53
2022/06/30 04:53:40;;;;;;;;;;;;;;;26.72;43.58;101731.06;2107072;28;1216;-55
2022/06/30 04:54:40;;;;;;;;;;;;;;;26.61;44.37;101731.56;2107155;28;1251;-54
2022/06/30 04:55:40;;;;;;;;;;;;;;;26.42;44.47;101731.50;2105985;28;874;-54
2022/06/30 04:56:40;;;;;;;;;;;;;;;26.38;44.39;101734.41;2107197;28;1231;-53
2022/06/30 04:57:41;;;;;;;;;;;;;;;26.38;43.94;101734.41;2107045;28;1192;-53
2022/06/30 04:58:41;;;;;;;;;;;;;;;26.43;44.73;101738.69;2107282;28;1274;-52
2022/06/30 04:59:41;;;;;;;;;;;;;;;26.49;45.17;101742.97;2105127;28;978;-51
2022/06/30 05:00:41;;;;;;;;;;;;;;;26.70;44.31;101734.81;2106022;28;1220;-52
2022/06/30 05:01:41;;;;;;;;;;;;;;;26.78;44.61;101738.94;2107165;28;998;-52
2022/06/30 05:02:41;;;;;;;;;;;;;;;26.83;44.75;101736.03;2106862;28;1272;-52
2022/06/30 05:03:42;;;;;;;;;;;;;;;26.86;45.36;101737.72;2107102;28;1014;-51
2022/06/30 05:04:43;;;;;;;;;;;;;;;26.93;46.28;101742.81;2107209;28;990;-54
2022/06/30 05:05:43;;;;;;;;;;;;;;;27.03;45.48;101740.56;2105373;28;931;-53
2022/06/30 05:06:43;;;;;;;;;;;;;;;26.94;46.74;101738.25;2107117;28;1141;-54
2022/06/30 05:07:43;;;;;;;;;;;;;;;26.95;47.17;101740.03;2107044;28;1902;-53
2022/06/30 05:08:44;;;;;;;;;;;;;;;26.98;46.44;101745.31;2107052;28;1184;-54
2022/06/30 05:09:44;;;;;;;;;;;;;;;26.90;46.08;101742.94;2106929;28;1271;-53
2022/06/30 05:10:44;;;;;;;;;;;;;;;26.99;49.16;101733.50;2105172;28;1169;-50
2022/06/30 05:11:44;;;;;;;;;;;;;;;27.14;44.63;101733.69;2106420;28;1295;-51
2022/06/30 05:12:44;;;;;;;;;;;;;;;27.17;44.20;101730.84;2107027;28;990;-50
2022/06/30 05:13:44;;;;;;;;;;;;;;;27.23;47.31;101730.53;2107032;28;1112;-51
2022/06/30 05:14:45;;;;;;;;;;;;;;;27.41;46.63;101730.63;2106955;28;1184;-51
2022/06/30 05:15:45;;;;;;;;;;;;;;;27.38;46.40;101727.09;2105966;28;1236;-52
2022/06/30 05:16:45;;;;;;;;;;;;;;;27.38;45.86;101724.38;2106954;28;1346;-52
2022/06/30 05:17:45;;;;;;;;;;;;;;;27.36;44.95;101728.13;2106900;28;1200;-51
2022/06/30 05:18:46;;;;;;;;;;;;;;;27.30;43.49;101732.00;2106937;28;1160;-51
2022/06/30 05:19:46;;;;;;;;;;;;;;;27.36;42.68;101722.69;2106938;28;1129;-52
2022/06/30 05:20:46;;;;;;;;;;;;;;;27.33;44.03;101723.72;2105987;28;1038;-52
2022/06/30 05:21:47;;;;;;;;;;;;;;;27.26;42.50;101721.38;2106870;28;1126;-53
2022/06/30 05:22:47;;;;;;;;;;;;;;;27.17;42.08;101728.13;2106976;28;1129;-53
2022/06/30 05:26:28;;;;;;;;;;;;;;;27.03;43.64;101726.97;2106961;28;1177;-55
2022/06/30 05:26:29;;;;;;;;;;;;;;;26.86;42.51;101729.56;2107151;28;891;-54
2022/06/30 05:27:29;;;;;;;;;;;;;;;26.81;43.01;101732.44;2106747;28;2008;-53
2022/06/30 05:28:29;;;;;;;;;;;;;;;26.84;42.55;101726.03;2106963;28;1085;-53
2022/06/30 05:29:29;;;;;;;;;;;;;;;26.81;40.73;101727.03;2106864;28;1057;-51
2022/06/30 05:30:30;;;;;;;;;;;;;;;26.79;45.03;101723.50;2105895;28;1180;-51
2022/06/30 05:31:30;;;;;;;;;;;;;;;26.81;43.13;101724.31;2107023;28;1184;-51
2022/06/30 05:32:30;;;;;;;;;;;;;;;26.90;44.07;101725.75;2107014;28;1066;-51
2022/06/30 05:33:30;;;;;;;;;;;;;;;27.18;44.14;101725.34;2107026;28;1172;-52
2022/06/30 05:34:31;;;;;;;;;;;;;;;27.22;42.39;101723.34;2107005;28;1176;-52
2022/06/30 05:35:31;;;;;;;;;;;;;;;27.30;41.95;101723.00;2105994;28;1176;-51
2022/06/30 05:36:31;;;;;;;;;;;;;;;27.29;40.57;101722.09;2107001;28;1121;-52
2022/06/30 05:37:31;;;;;;;;;;;;;;;27.34;40.85;101722.75;2106919;28;1121;-52
2022/06/30 05:38:32;;;;;;;;;;;;;;;27.33;40.61;101711.97;2106855;28;1050;-54
2022/06/30 05:39:35;;;;;;;;;;;;;;;27.27;44.62;101721.28;2106975;28;1166;-53
2022/06/30 05:40:35;;;;;;;;;;;;;;;27.36;44.69;101723.56;2105958;28;1161;-53
2022/06/30 05:41:36;;;;;;;;;;;;;;;27.29;42.66;101719.38;2106926;28;1175;-53